sensor_id;sensor_type;location;lat;lon;timestamp;P1;durP1;ratioP1;P2;durP2;ratioP2
31464;SDS011;18089;47.428;15.006;2022-07-29T00:00:17;11.63;;;10.45;;
31464;SDS011;18089;47.428;15.006;2022-07-29T00:02:51;11.27;;;10.25;;
31464;SDS011;18089;47.428;15.006;2022-07-29T00:05:23;12.48;;;11.05;;
31464;SDS011;18089;47.428;15.006;2022-07-29T00:07:55;12.25;;;11.15;;
31464;SDS011;18089;47.428;15.006;2022-07-29T00:10:27;12.43;;;11.23;;
31464;SDS011;18089;47.428;15.006;2022-07-29T00:12:59;12.20;;;10.93;;
31464;SDS011;18089;47.428;15.006;2022-07-29T00:15:31;12.63;;;11.43;;
31464;SDS011;18089;47.428;15.006;2022-07-29T00:18:05;12.43;;;11.10;;
31464;SDS011;18089;47.428;15.006;2022-07-29T00:20:37;11.18;;;10.07;;
31464;SDS011;18089;47.428;15.006;2022-07-29T00:23:09;12.93;;;10.75;;
31464;SDS011;18089;47.428;15.006;2022-07-29T00:25:41;11.80;;;10.73;;
31464;SDS011;18089;47.428;15.006;2022-07-29T00:28:13;12.40;;;11.23;;
31464;SDS011;18089;47.428;15.006;2022-07-29T00:30:45;12.60;;;10.93;;
31464;SDS011;18089;47.428;15.006;2022-07-29T00:33:18;12.30;;;11.20;;
31464;SDS011;18089;47.428;15.006;2022-07-29T00:35:50;12.13;;;10.95;;
31464;SDS011;18089;47.428;15.006;2022-07-29T00:38:21;11.93;;;10.93;;
31464;SDS011;18089;47.428;15.006;2022-07-29T00:40:53;12.90;;;11.65;;
31464;SDS011;18089;47.428;15.006;2022-07-29T00:43:25;12.55;;;11.32;;
31464;SDS011;18089;47.428;15.006;2022-07-29T00:45:57;11.85;;;10.75;;
31464;SDS011;18089;47.428;15.006;2022-07-29T00:48:31;13.98;;;11.93;;
31464;SDS011;18089;47.428;15.006;2022-07-29T00:51:03;13.13;;;11.68;;
31464;SDS011;18089;47.428;15.006;2022-07-29T00:53:37;15.23;;;11.38;;
31464;SDS011;18089;47.428;15.006;2022-07-29T00:56:09;12.90;;;11.55;;
31464;SDS011;18089;47.428;15.006;2022-07-29T00:58:41;13.02;;;11.68;;
31464;SDS011;18089;47.428;15.006;2022-07-29T01:01:14;13.10;;;11.90;;
31464;SDS011;18089;47.428;15.006;2022-07-29T01:03:47;13.55;;;11.75;;
31464;SDS011;18089;47.428;15.006;2022-07-29T01:06:19;13.60;;;12.27;;
31464;SDS011;18089;47.428;15.006;2022-07-29T01:08:51;14.25;;;11.43;;
31464;SDS011;18089;47.428;15.006;2022-07-29T01:11:24;14.30;;;12.48;;
31464;SDS011;18089;47.428;15.006;2022-07-29T01:13:56;12.80;;;11.70;;
31464;SDS011;18089;47.428;15.006;2022-07-29T01:16:30;12.80;;;11.60;;
31464;SDS011;18089;47.428;15.006;2022-07-29T01:19:06;12.90;;;11.60;;
31464;SDS011;18089;47.428;15.006;2022-07-29T01:21:50;11.65;;;10.55;;
31464;SDS011;18089;47.428;15.006;2022-07-29T01:24:30;16.20;;;11.45;;
31464;SDS011;18089;47.428;15.006;2022-07-29T01:27:08;11.70;;;10.60;;
31464;SDS011;18089;47.428;15.006;2022-07-29T01:29:54;11.27;;;10.13;;
31464;SDS011;18089;47.428;15.006;2022-07-29T01:32:29;11.85;;;10.35;;
31464;SDS011;18089;47.428;15.006;2022-07-29T01:35:05;11.65;;;10.45;;
31464;SDS011;18089;47.428;15.006;2022-07-29T01:37:43;12.07;;;10.88;;
31464;SDS011;18089;47.428;15.006;2022-07-29T01:40:18;12.45;;;11.15;;
31464;SDS011;18089;47.428;15.006;2022-07-29T01:42:52;13.20;;;11.85;;
31464;SDS011;18089;47.428;15.006;2022-07-29T01:45:30;13.15;;;11.30;;
31464;SDS011;18089;47.428;15.006;2022-07-29T01:48:06;13.43;;;10.95;;
31464;SDS011;18089;47.428;15.006;2022-07-29T01:50:45;13.18;;;11.45;;
31464;SDS011;18089;47.428;15.006;2022-07-29T01:53:21;13.18;;;11.75;;
31464;SDS011;18089;47.428;15.006;2022-07-29T01:55:58;14.38;;;11.75;;
31464;SDS011;18089;47.428;15.006;2022-07-29T01:58:31;12.10;;;10.98;;
31464;SDS011;18089;47.428;15.006;2022-07-29T02:01:05;13.40;;;12.05;;
31464;SDS011;18089;47.428;15.006;2022-07-29T02:03:38;12.50;;;11.30;;
31464;SDS011;18089;47.428;15.006;2022-07-29T02:06:14;15.27;;;12.35;;
31464;SDS011;18089;47.428;15.006;2022-07-29T02:08:48;14.23;;;12.15;;
31464;SDS011;18089;47.428;15.006;2022-07-29T02:11:21;13.15;;;11.95;;
31464;SDS011;18089;47.428;15.006;2022-07-29T02:13:54;14.02;;;12.23;;
31464;SDS011;18089;47.428;15.006;2022-07-29T02:16:30;13.20;;;12.00;;
31464;SDS011;18089;47.428;15.006;2022-07-29T02:19:03;13.38;;;11.70;;
31464;SDS011;18089;47.428;15.006;2022-07-29T02:21:36;12.35;;;11.18;;
31464;SDS011;18089;47.428;15.006;2022-07-29T02:24:09;13.23;;;11.80;;
31464;SDS011;18089;47.428;15.006;2022-07-29T02:26:43;12.60;;;11.40;;
31464;SDS011;18089;47.428;15.006;2022-07-29T02:29:15;12.55;;;11.25;;
31464;SDS011;18089;47.428;15.006;2022-07-29T02:31:50;13.32;;;12.02;;
31464;SDS011;18089;47.428;15.006;2022-07-29T02:34:22;12.05;;;10.68;;
31464;SDS011;18089;47.428;15.006;2022-07-29T02:36:55;12.65;;;11.45;;
31464;SDS011;18089;47.428;15.006;2022-07-29T02:39:27;13.10;;;11.45;;
31464;SDS011;18089;47.428;15.006;2022-07-29T02:42:01;12.70;;;11.60;;
31464;SDS011;18089;47.428;15.006;2022-07-29T02:44:35;13.55;;;12.25;;
31464;SDS011;18089;47.428;15.006;2022-07-29T02:47:10;13.45;;;12.02;;
31464;SDS011;18089;47.428;15.006;2022-07-29T02:49:47;12.63;;;11.32;;
31464;SDS011;18089;47.428;15.006;2022-07-29T02:52:24;16.20;;;11.05;;
31464;SDS011;18089;47.428;15.006;2022-07-29T02:54:59;16.45;;;11.80;;
31464;SDS011;18089;47.428;15.006;2022-07-29T02:57:34;11.88;;;10.70;;
31464;SDS011;18089;47.428;15.006;2022-07-29T03:00:08;13.20;;;11.90;;
31464;SDS011;18089;47.428;15.006;2022-07-29T03:02:44;13.30;;;11.85;;
31464;SDS011;18089;47.428;15.006;2022-07-29T03:05:17;17.10;;;11.32;;
31464;SDS011;18089;47.428;15.006;2022-07-29T03:07:51;13.20;;;11.90;;
31464;SDS011;18089;47.428;15.006;2022-07-29T03:10:26;12.93;;;11.63;;
31464;SDS011;18089;47.428;15.006;2022-07-29T03:12:58;12.95;;;11.65;;
31464;SDS011;18089;47.428;15.006;2022-07-29T03:15:31;13.27;;;11.80;;
31464;SDS011;18089;47.428;15.006;2022-07-29T03:18:05;13.98;;;11.85;;
31464;SDS011;18089;47.428;15.006;2022-07-29T03:20:38;16.58;;;11.98;;
31464;SDS011;18089;47.428;15.006;2022-07-29T03:23:10;14.13;;;12.82;;
31464;SDS011;18089;47.428;15.006;2022-07-29T03:25:42;16.75;;;12.57;;
31464;SDS011;18089;47.428;15.006;2022-07-29T03:28:14;13.90;;;11.95;;
31464;SDS011;18089;47.428;15.006;2022-07-29T03:30:47;13.50;;;12.18;;
31464;SDS011;18089;47.428;15.006;2022-07-29T03:33:20;14.25;;;12.60;;
31464;SDS011;18089;47.428;15.006;2022-07-29T03:35:52;14.82;;;13.35;;
31464;SDS011;18089;47.428;15.006;2022-07-29T03:38:25;14.15;;;12.73;;
31464;SDS011;18089;47.428;15.006;2022-07-29T03:40:59;14.27;;;12.55;;
31464;SDS011;18089;47.428;15.006;2022-07-29T03:43:34;15.32;;;11.90;;
31464;SDS011;18089;47.428;15.006;2022-07-29T03:46:09;13.05;;;11.80;;
31464;SDS011;18089;47.428;15.006;2022-07-29T03:48:45;14.43;;;12.63;;
31464;SDS011;18089;47.428;15.006;2022-07-29T03:51:18;14.65;;;13.20;;
31464;SDS011;18089;47.428;15.006;2022-07-29T03:53:50;14.25;;;12.85;;
31464;SDS011;18089;47.428;15.006;2022-07-29T03:56:22;13.80;;;12.40;;
31464;SDS011;18089;47.428;15.006;2022-07-29T03:58:55;14.27;;;12.88;;
31464;SDS011;18089;47.428;15.006;2022-07-29T04:01:27;14.40;;;12.85;;
31464;SDS011;18089;47.428;15.006;2022-07-29T04:04:01;13.35;;;12.05;;
31464;SDS011;18089;47.428;15.006;2022-07-29T04:06:38;13.98;;;12.30;;
31464;SDS011;18089;47.428;15.006;2022-07-29T04:09:10;12.93;;;11.60;;
31464;SDS011;18089;47.428;15.006;2022-07-29T04:11:43;13.15;;;11.85;;
31464;SDS011;18089;47.428;15.006;2022-07-29T04:14:15;13.68;;;12.27;;
31464;SDS011;18089;47.428;15.006;2022-07-29T04:16:47;13.48;;;12.18;;
31464;SDS011;18089;47.428;15.006;2022-07-29T04:19:21;14.48;;;12.38;;
31464;SDS011;18089;47.428;15.006;2022-07-29T04:21:53;14.82;;;12.20;;
31464;SDS011;18089;47.428;15.006;2022-07-29T04:24:25;14.05;;;12.70;;
31464;SDS011;18089;47.428;15.006;2022-07-29T04:26:57;13.20;;;11.80;;
31464;SDS011;18089;47.428;15.006;2022-07-29T04:29:29;15.80;;;12.57;;
31464;SDS011;18089;47.428;15.006;2022-07-29T04:32:01;14.50;;;13.05;;
31464;SDS011;18089;47.428;15.006;2022-07-29T04:34:34;15.63;;;12.15;;
31464;SDS011;18089;47.428;15.006;2022-07-29T04:37:06;12.65;;;11.45;;
31464;SDS011;18089;47.428;15.006;2022-07-29T04:39:38;15.13;;;13.10;;
31464;SDS011;18089;47.428;15.006;2022-07-29T04:42:10;15.52;;;13.93;;
31464;SDS011;18089;47.428;15.006;2022-07-29T04:44:42;16.35;;;13.60;;
31464;SDS011;18089;47.428;15.006;2022-07-29T04:47:14;15.85;;;12.57;;
31464;SDS011;18089;47.428;15.006;2022-07-29T04:49:48;15.15;;;12.13;;
31464;SDS011;18089;47.428;15.006;2022-07-29T04:52:20;13.10;;;11.80;;
31464;SDS011;18089;47.428;15.006;2022-07-29T04:54:52;11.50;;;10.50;;
31464;SDS011;18089;47.428;15.006;2022-07-29T04:57:24;12.23;;;9.68;;
31464;SDS011;18089;47.428;15.006;2022-07-29T04:59:56;12.55;;;10.63;;
31464;SDS011;18089;47.428;15.006;2022-07-29T05:02:29;12.77;;;10.85;;
31464;SDS011;18089;47.428;15.006;2022-07-29T05:05:03;12.75;;;11.07;;
31464;SDS011;18089;47.428;15.006;2022-07-29T05:07:35;11.45;;;10.25;;
31464;SDS011;18089;47.428;15.006;2022-07-29T05:10:08;12.77;;;9.15;;
31464;SDS011;18089;47.428;15.006;2022-07-29T05:12:41;10.95;;;8.70;;
31464;SDS011;18089;47.428;15.006;2022-07-29T05:15:13;11.68;;;9.57;;
31464;SDS011;18089;47.428;15.006;2022-07-29T05:17:46;11.93;;;10.15;;
31464;SDS011;18089;47.428;15.006;2022-07-29T05:20:20;9.57;;;8.48;;
31464;SDS011;18089;47.428;15.006;2022-07-29T05:22:56;9.35;;;8.45;;
31464;SDS011;18089;47.428;15.006;2022-07-29T05:25:29;9.20;;;8.00;;
31464;SDS011;18089;47.428;15.006;2022-07-29T05:28:01;9.07;;;8.05;;
31464;SDS011;18089;47.428;15.006;2022-07-29T05:30:33;9.15;;;8.35;;
31464;SDS011;18089;47.428;15.006;2022-07-29T05:33:05;11.93;;;9.02;;
31464;SDS011;18089;47.428;15.006;2022-07-29T05:35:38;12.25;;;9.30;;
31464;SDS011;18089;47.428;15.006;2022-07-29T05:38:10;9.23;;;8.38;;
31464;SDS011;18089;47.428;15.006;2022-07-29T05:40:42;8.68;;;7.72;;
31464;SDS011;18089;47.428;15.006;2022-07-29T05:43:14;9.55;;;8.55;;
31464;SDS011;18089;47.428;15.006;2022-07-29T05:45:46;9.55;;;8.60;;
31464;SDS011;18089;47.428;15.006;2022-07-29T05:48:18;12.30;;;8.50;;
31464;SDS011;18089;47.428;15.006;2022-07-29T05:50:52;9.43;;;8.52;;
31464;SDS011;18089;47.428;15.006;2022-07-29T05:53:24;9.57;;;8.57;;
31464;SDS011;18089;47.428;15.006;2022-07-29T05:55:56;10.88;;;9.80;;
31464;SDS011;18089;47.428;15.006;2022-07-29T05:58:28;10.00;;;9.05;;
31464;SDS011;18089;47.428;15.006;2022-07-29T06:01:00;10.55;;;9.45;;
31464;SDS011;18089;47.428;15.006;2022-07-29T06:03:32;12.73;;;9.10;;
31464;SDS011;18089;47.428;15.006;2022-07-29T06:06:06;10.15;;;8.90;;
31464;SDS011;18089;47.428;15.006;2022-07-29T06:08:38;13.63;;;9.35;;
31464;SDS011;18089;47.428;15.006;2022-07-29T06:11:11;11.52;;;10.18;;
31464;SDS011;18089;47.428;15.006;2022-07-29T06:13:43;11.40;;;10.30;;
31464;SDS011;18089;47.428;15.006;2022-07-29T06:16:15;11.70;;;10.60;;
31464;SDS011;18089;47.428;15.006;2022-07-29T06:18:47;11.65;;;9.90;;
31464;SDS011;18089;47.428;15.006;2022-07-29T06:21:20;10.88;;;9.77;;
31464;SDS011;18089;47.428;15.006;2022-07-29T06:23:52;12.18;;;9.40;;
31464;SDS011;18089;47.428;15.006;2022-07-29T06:26:25;10.05;;;9.05;;
31464;SDS011;18089;47.428;15.006;2022-07-29T06:28:57;10.20;;;9.10;;
31464;SDS011;18089;47.428;15.006;2022-07-29T06:31:29;10.50;;;9.40;;
31464;SDS011;18089;47.428;15.006;2022-07-29T06:34:01;9.73;;;8.82;;
31464;SDS011;18089;47.428;15.006;2022-07-29T06:36:35;10.55;;;9.55;;
31464;SDS011;18089;47.428;15.006;2022-07-29T06:39:08;10.45;;;9.10;;
31464;SDS011;18089;47.428;15.006;2022-07-29T06:41:40;11.25;;;9.70;;
31464;SDS011;18089;47.428;15.006;2022-07-29T06:44:13;11.20;;;10.10;;
31464;SDS011;18089;47.428;15.006;2022-07-29T06:46:45;10.82;;;9.73;;
31464;SDS011;18089;47.428;15.006;2022-07-29T06:49:19;9.68;;;8.50;;
31464;SDS011;18089;47.428;15.006;2022-07-29T06:51:52;11.10;;;10.00;;
31464;SDS011;18089;47.428;15.006;2022-07-29T06:54:24;10.65;;;9.55;;
31464;SDS011;18089;47.428;15.006;2022-07-29T06:56:56;9.63;;;8.63;;
31464;SDS011;18089;47.428;15.006;2022-07-29T06:59:29;9.50;;;8.30;;
31464;SDS011;18089;47.428;15.006;2022-07-29T07:02:02;11.38;;;8.50;;
31464;SDS011;18089;47.428;15.006;2022-07-29T07:04:34;10.35;;;8.07;;
31464;SDS011;18089;47.428;15.006;2022-07-29T07:07:07;8.65;;;7.85;;
31464;SDS011;18089;47.428;15.006;2022-07-29T07:09:39;9.40;;;7.65;;
31464;SDS011;18089;47.428;15.006;2022-07-29T07:12:12;7.43;;;6.72;;
31464;SDS011;18089;47.428;15.006;2022-07-29T07:14:44;8.57;;;6.82;;
31464;SDS011;18089;47.428;15.006;2022-07-29T07:17:16;7.38;;;6.68;;
31464;SDS011;18089;47.428;15.006;2022-07-29T07:19:48;7.68;;;6.65;;
31464;SDS011;18089;47.428;15.006;2022-07-29T07:22:21;8.02;;;7.20;;
31464;SDS011;18089;47.428;15.006;2022-07-29T07:24:53;6.90;;;6.30;;
31464;SDS011;18089;47.428;15.006;2022-07-29T07:27:25;7.38;;;6.68;;
31464;SDS011;18089;47.428;15.006;2022-07-29T07:29:57;7.38;;;6.68;;
31464;SDS011;18089;47.428;15.006;2022-07-29T07:32:29;7.65;;;6.35;;
31464;SDS011;18089;47.428;15.006;2022-07-29T07:35:02;6.68;;;6.03;;
31464;SDS011;18089;47.428;15.006;2022-07-29T07:37:36;6.90;;;6.05;;
31464;SDS011;18089;47.428;15.006;2022-07-29T07:40:10;6.63;;;6.03;;
31464;SDS011;18089;47.428;15.006;2022-07-29T07:42:43;9.80;;;6.00;;
31464;SDS011;18089;47.428;15.006;2022-07-29T07:45:15;6.43;;;5.72;;
31464;SDS011;18089;47.428;15.006;2022-07-29T07:47:47;6.28;;;5.68;;
31464;SDS011;18089;47.428;15.006;2022-07-29T07:50:19;6.38;;;5.63;;
31464;SDS011;18089;47.428;15.006;2022-07-29T07:52:53;6.45;;;5.95;;
31464;SDS011;18089;47.428;15.006;2022-07-29T07:55:27;5.80;;;5.30;;
31464;SDS011;18089;47.428;15.006;2022-07-29T07:57:59;6.85;;;6.20;;
31464;SDS011;18089;47.428;15.006;2022-07-29T08:00:31;6.57;;;5.97;;
31464;SDS011;18089;47.428;15.006;2022-07-29T08:03:03;7.13;;;6.43;;
31464;SDS011;18089;47.428;15.006;2022-07-29T08:05:35;6.78;;;6.18;;
31464;SDS011;18089;47.428;15.006;2022-07-29T08:08:09;6.47;;;5.90;;
31464;SDS011;18089;47.428;15.006;2022-07-29T08:10:41;6.38;;;5.78;;
31464;SDS011;18089;47.428;15.006;2022-07-29T08:13:33;8.82;;;5.93;;
31464;SDS011;18089;47.428;15.006;2022-07-29T08:16:05;5.95;;;5.40;;
31464;SDS011;18089;47.428;15.006;2022-07-29T08:18:45;6.85;;;6.15;;
31464;SDS011;18089;47.428;15.006;2022-07-29T08:21:17;6.55;;;6.00;;
31464;SDS011;18089;47.428;15.006;2022-07-29T08:23:51;6.85;;;6.25;;
31464;SDS011;18089;47.428;15.006;2022-07-29T08:26:43;6.80;;;6.10;;
31464;SDS011;18089;47.428;15.006;2022-07-29T08:29:15;7.00;;;6.30;;
31464;SDS011;18089;47.428;15.006;2022-07-29T08:31:47;7.18;;;6.57;;
31464;SDS011;18089;47.428;15.006;2022-07-29T08:34:19;6.82;;;6.18;;
31464;SDS011;18089;47.428;15.006;2022-07-29T08:36:52;7.05;;;6.35;;
31464;SDS011;18089;47.428;15.006;2022-07-29T08:39:25;7.00;;;6.32;;
31464;SDS011;18089;47.428;15.006;2022-07-29T08:41:57;6.80;;;6.10;;
31464;SDS011;18089;47.428;15.006;2022-07-29T08:44:29;6.82;;;6.22;;
31464;SDS011;18089;47.428;15.006;2022-07-29T08:47:01;7.57;;;6.10;;
31464;SDS011;18089;47.428;15.006;2022-07-29T08:49:33;6.10;;;5.60;;
31464;SDS011;18089;47.428;15.006;2022-07-29T08:52:06;6.18;;;5.68;;
31464;SDS011;18089;47.428;15.006;2022-07-29T08:54:39;6.22;;;5.60;;
31464;SDS011;18089;47.428;15.006;2022-07-29T08:57:14;6.00;;;5.50;;
31464;SDS011;18089;47.428;15.006;2022-07-29T08:59:47;5.68;;;5.20;;
31464;SDS011;18089;47.428;15.006;2022-07-29T09:02:22;7.57;;;5.47;;
31464;SDS011;18089;47.428;15.006;2022-07-29T09:04:54;5.63;;;5.13;;
31464;SDS011;18089;47.428;15.006;2022-07-29T09:07:28;6.03;;;5.47;;
31464;SDS011;18089;47.428;15.006;2022-07-29T09:10:01;5.68;;;5.18;;
31464;SDS011;18089;47.428;15.006;2022-07-29T09:12:33;5.82;;;5.20;;
31464;SDS011;18089;47.428;15.006;2022-07-29T09:15:06;6.13;;;5.53;;
31464;SDS011;18089;47.428;15.006;2022-07-29T09:17:39;5.53;;;5.03;;
31464;SDS011;18089;47.428;15.006;2022-07-29T09:20:12;5.90;;;5.13;;
31464;SDS011;18089;47.428;15.006;2022-07-29T09:22:45;6.25;;;4.85;;
31464;SDS011;18089;47.428;15.006;2022-07-29T09:25:33;7.43;;;5.10;;
31464;SDS011;18089;47.428;15.006;2022-07-29T09:28:05;5.85;;;5.20;;
31464;SDS011;18089;47.428;15.006;2022-07-29T09:30:41;6.60;;;5.45;;
31464;SDS011;18089;47.428;15.006;2022-07-29T09:33:22;5.97;;;5.38;;
31464;SDS011;18089;47.428;15.006;2022-07-29T09:35:58;6.30;;;5.70;;
31464;SDS011;18089;47.428;15.006;2022-07-29T09:38:31;7.72;;;6.10;;
31464;SDS011;18089;47.428;15.006;2022-07-29T09:41:05;6.68;;;5.97;;
31464;SDS011;18089;47.428;15.006;2022-07-29T09:43:38;7.07;;;5.97;;
31464;SDS011;18089;47.428;15.006;2022-07-29T09:46:10;8.10;;;5.95;;
31464;SDS011;18089;47.428;15.006;2022-07-29T09:48:43;7.32;;;6.47;;
31464;SDS011;18089;47.428;15.006;2022-07-29T09:51:18;6.38;;;5.82;;
31464;SDS011;18089;47.428;15.006;2022-07-29T09:53:50;8.20;;;6.00;;
31464;SDS011;18089;47.428;15.006;2022-07-29T09:56:29;7.68;;;6.53;;
31464;SDS011;18089;47.428;15.006;2022-07-29T09:59:10;7.80;;;6.93;;
31464;SDS011;18089;47.428;15.006;2022-07-29T10:01:42;7.88;;;6.97;;
31464;SDS011;18089;47.428;15.006;2022-07-29T10:04:14;7.43;;;5.90;;
31464;SDS011;18089;47.428;15.006;2022-07-29T10:06:56;6.63;;;6.03;;
31464;SDS011;18089;47.428;15.006;2022-07-29T10:09:29;7.35;;;6.20;;
31464;SDS011;18089;47.428;15.006;2022-07-29T10:12:04;6.45;;;5.80;;
31464;SDS011;18089;47.428;15.006;2022-07-29T10:14:37;6.82;;;6.22;;
31464;SDS011;18089;47.428;15.006;2022-07-29T10:17:10;6.75;;;6.15;;
31464;SDS011;18089;47.428;15.006;2022-07-29T10:19:42;7.15;;;6.45;;
31464;SDS011;18089;47.428;15.006;2022-07-29T10:22:14;7.20;;;6.50;;
31464;SDS011;18089;47.428;15.006;2022-07-29T10:24:46;6.90;;;6.30;;
31464;SDS011;18089;47.428;15.006;2022-07-29T10:27:20;8.35;;;6.63;;
31464;SDS011;18089;47.428;15.006;2022-07-29T10:29:52;7.57;;;6.88;;
31464;SDS011;18089;47.428;15.006;2022-07-29T10:32:37;10.30;;;7.43;;
31464;SDS011;18089;47.428;15.006;2022-07-29T10:38:37;7.43;;;6.72;;
31464;SDS011;18089;47.428;15.006;2022-07-29T10:41:18;7.80;;;7.00;;
31464;SDS011;18089;47.428;15.006;2022-07-29T10:44:04;7.65;;;6.90;;
31464;SDS011;18089;47.428;15.006;2022-07-29T10:46:38;8.85;;;7.75;;
31464;SDS011;18089;47.428;15.006;2022-07-29T10:49:11;8.98;;;8.07;;
31464;SDS011;18089;47.428;15.006;2022-07-29T10:51:55;9.25;;;8.35;;
31464;SDS011;18089;47.428;15.006;2022-07-29T10:54:38;10.27;;;9.27;;
31464;SDS011;18089;47.428;15.006;2022-07-29T10:57:17;10.20;;;8.30;;
31464;SDS011;18089;47.428;15.006;2022-07-29T11:03:07;7.53;;;6.72;;
31464;SDS011;18089;47.428;15.006;2022-07-29T11:05:51;9.65;;;8.75;;
31464;SDS011;18089;47.428;15.006;2022-07-29T11:08:24;11.82;;;10.32;;
31464;SDS011;18089;47.428;15.006;2022-07-29T11:14:02;7.15;;;6.55;;
31464;SDS011;18089;47.428;15.006;2022-07-29T11:19:34;7.03;;;6.43;;
31464;SDS011;18089;47.428;15.006;2022-07-29T11:22:09;7.68;;;6.13;;
31464;SDS011;18089;47.428;15.006;2022-07-29T11:24:41;6.05;;;5.55;;
31464;SDS011;18089;47.428;15.006;2022-07-29T11:27:14;6.72;;;6.10;;
31464;SDS011;18089;47.428;15.006;2022-07-29T11:29:48;6.57;;;5.97;;
31464;SDS011;18089;47.428;15.006;2022-07-29T11:32:22;6.85;;;6.03;;
31464;SDS011;18089;47.428;15.006;2022-07-29T11:35:13;7.60;;;6.28;;
31464;SDS011;18089;47.428;15.006;2022-07-29T11:38:23;6.55;;;6.05;;
31464;SDS011;18089;47.428;15.006;2022-07-29T11:43:52;7.30;;;6.70;;
31464;SDS011;18089;47.428;15.006;2022-07-29T11:46:44;7.72;;;6.90;;
31464;SDS011;18089;47.428;15.006;2022-07-29T11:49:19;6.63;;;6.03;;
31464;SDS011;18089;47.428;15.006;2022-07-29T11:51:53;7.10;;;6.35;;
31464;SDS011;18089;47.428;15.006;2022-07-29T11:54:26;24.02;;;19.52;;
31464;SDS011;18089;47.428;15.006;2022-07-29T11:57:02;8.98;;;8.07;;
31464;SDS011;18089;47.428;15.006;2022-07-29T11:59:38;7.35;;;6.28;;
31464;SDS011;18089;47.428;15.006;2022-07-29T12:02:11;6.75;;;6.07;;
31464;SDS011;18089;47.428;15.006;2022-07-29T12:04:48;18.80;;;14.02;;
31464;SDS011;18089;47.428;15.006;2022-07-29T12:07:27;7.15;;;6.45;;
31464;SDS011;18089;47.428;15.006;2022-07-29T12:09:59;6.75;;;6.10;;
31464;SDS011;18089;47.428;15.006;2022-07-29T12:12:32;7.45;;;6.75;;
31464;SDS011;18089;47.428;15.006;2022-07-29T12:15:11;8.65;;;6.50;;
31464;SDS011;18089;47.428;15.006;2022-07-29T12:17:47;7.30;;;6.60;;
31464;SDS011;18089;47.428;15.006;2022-07-29T12:20:23;6.90;;;6.20;;
31464;SDS011;18089;47.428;15.006;2022-07-29T12:22:57;7.28;;;6.28;;
31464;SDS011;18089;47.428;15.006;2022-07-29T12:25:33;8.35;;;5.78;;
31464;SDS011;18089;47.428;15.006;2022-07-29T12:28:06;6.78;;;6.15;;
31464;SDS011;18089;47.428;15.006;2022-07-29T12:30:42;5.97;;;5.43;;
31464;SDS011;18089;47.428;15.006;2022-07-29T12:33:17;5.80;;;5.28;;
31464;SDS011;18089;47.428;15.006;2022-07-29T12:35:51;5.63;;;4.90;;
31464;SDS011;18089;47.428;15.006;2022-07-29T12:38:26;6.30;;;4.90;;
31464;SDS011;18089;47.428;15.006;2022-07-29T12:40:58;7.97;;;5.35;;
31464;SDS011;18089;47.428;15.006;2022-07-29T12:43:31;5.43;;;4.93;;
31464;SDS011;18089;47.428;15.006;2022-07-29T12:46:11;5.72;;;5.18;;
31464;SDS011;18089;47.428;15.006;2022-07-29T12:48:44;5.85;;;5.35;;
31464;SDS011;18089;47.428;15.006;2022-07-29T12:51:27;6.50;;;5.20;;
31464;SDS011;18089;47.428;15.006;2022-07-29T12:54:03;5.88;;;5.38;;
31464;SDS011;18089;47.428;15.006;2022-07-29T12:56:37;5.90;;;5.40;;
31464;SDS011;18089;47.428;15.006;2022-07-29T12:59:13;5.93;;;5.38;;
31464;SDS011;18089;47.428;15.006;2022-07-29T13:01:46;5.70;;;5.20;;
31464;SDS011;18089;47.428;15.006;2022-07-29T13:04:25;5.45;;;5.05;;
31464;SDS011;18089;47.428;15.006;2022-07-29T13:06:58;5.95;;;5.45;;
31464;SDS011;18089;47.428;15.006;2022-07-29T13:09:42;6.05;;;5.55;;
31464;SDS011;18089;47.428;15.006;2022-07-29T13:12:15;5.70;;;5.20;;
31464;SDS011;18089;47.428;15.006;2022-07-29T13:14:47;5.65;;;4.95;;
31464;SDS011;18089;47.428;15.006;2022-07-29T13:17:20;7.05;;;5.25;;
31464;SDS011;18089;47.428;15.006;2022-07-29T13:20:03;4.72;;;4.35;;
31464;SDS011;18089;47.428;15.006;2022-07-29T13:22:36;6.50;;;5.18;;
31464;SDS011;18089;47.428;15.006;2022-07-29T13:25:10;5.53;;;4.90;;
31464;SDS011;18089;47.428;15.006;2022-07-29T13:27:42;6.13;;;5.25;;
31464;SDS011;18089;47.428;15.006;2022-07-29T13:30:15;8.68;;;5.95;;
31464;SDS011;18089;47.428;15.006;2022-07-29T13:32:48;6.75;;;6.15;;
31464;SDS011;18089;47.428;15.006;2022-07-29T13:35:20;6.93;;;6.22;;
31464;SDS011;18089;47.428;15.006;2022-07-29T13:37:52;6.60;;;5.60;;
31464;SDS011;18089;47.428;15.006;2022-07-29T13:40:25;6.20;;;5.60;;
31464;SDS011;18089;47.428;15.006;2022-07-29T13:42:59;7.68;;;5.75;;
31464;SDS011;18089;47.428;15.006;2022-07-29T13:45:31;6.43;;;5.40;;
31464;SDS011;18089;47.428;15.006;2022-07-29T13:48:03;7.35;;;5.40;;
31464;SDS011;18089;47.428;15.006;2022-07-29T13:50:36;6.40;;;5.80;;
31464;SDS011;18089;47.428;15.006;2022-07-29T13:53:08;6.03;;;5.45;;
31464;SDS011;18089;47.428;15.006;2022-07-29T13:55:41;6.28;;;5.68;;
31464;SDS011;18089;47.428;15.006;2022-07-29T13:58:14;6.28;;;5.68;;
31464;SDS011;18089;47.428;15.006;2022-07-29T14:00:46;6.20;;;5.57;;
31464;SDS011;18089;47.428;15.006;2022-07-29T14:03:18;8.35;;;6.18;;
31464;SDS011;18089;47.428;15.006;2022-07-29T14:05:50;7.70;;;5.32;;
31464;SDS011;18089;47.428;15.006;2022-07-29T14:08:22;6.03;;;5.53;;
31464;SDS011;18089;47.428;15.006;2022-07-29T14:10:55;6.15;;;5.55;;
31464;SDS011;18089;47.428;15.006;2022-07-29T14:13:27;12.25;;;8.80;;
31464;SDS011;18089;47.428;15.006;2022-07-29T14:15:59;6.47;;;5.30;;
31464;SDS011;18089;47.428;15.006;2022-07-29T14:18:31;6.38;;;5.65;;
31464;SDS011;18089;47.428;15.006;2022-07-29T14:21:03;7.45;;;5.95;;
31464;SDS011;18089;47.428;15.006;2022-07-29T14:23:36;6.50;;;5.45;;
31464;SDS011;18089;47.428;15.006;2022-07-29T14:26:09;6.45;;;5.22;;
31464;SDS011;18089;47.428;15.006;2022-07-29T14:28:41;5.45;;;4.97;;
31464;SDS011;18089;47.428;15.006;2022-07-29T14:31:14;5.57;;;4.95;;
31464;SDS011;18089;47.428;15.006;2022-07-29T14:33:47;6.63;;;5.30;;
31464;SDS011;18089;47.428;15.006;2022-07-29T14:36:19;6.35;;;5.53;;
31464;SDS011;18089;47.428;15.006;2022-07-29T14:38:51;6.25;;;5.65;;
31464;SDS011;18089;47.428;15.006;2022-07-29T14:41:24;8.30;;;7.55;;
31464;SDS011;18089;47.428;15.006;2022-07-29T14:43:58;6.00;;;5.50;;
31464;SDS011;18089;47.428;15.006;2022-07-29T14:46:30;6.78;;;5.65;;
31464;SDS011;18089;47.428;15.006;2022-07-29T14:49:02;31.30;;;26.48;;
31464;SDS011;18089;47.428;15.006;2022-07-29T14:51:35;43.28;;;29.95;;
31464;SDS011;18089;47.428;15.006;2022-07-29T14:54:07;7.03;;;6.32;;
31464;SDS011;18089;47.428;15.006;2022-07-29T14:56:41;25.10;;;15.68;;
31464;SDS011;18089;47.428;15.006;2022-07-29T14:59:13;12.82;;;8.70;;
31464;SDS011;18089;47.428;15.006;2022-07-29T15:01:45;5.40;;;4.90;;
31464;SDS011;18089;47.428;15.006;2022-07-29T15:04:17;7.35;;;6.65;;
31464;SDS011;18089;47.428;15.006;2022-07-29T15:06:49;11.68;;;9.23;;
31464;SDS011;18089;47.428;15.006;2022-07-29T15:09:21;5.50;;;4.95;;
31464;SDS011;18089;47.428;15.006;2022-07-29T15:11:55;5.60;;;5.03;;
31464;SDS011;18089;47.428;15.006;2022-07-29T15:14:27;6.43;;;4.60;;
31464;SDS011;18089;47.428;15.006;2022-07-29T15:16:59;5.13;;;4.45;;